Terminal Aerodrome Forecast
Issued by NWS

Home | Current Version | Previous Version | Text Only | Print | Product List | Glossary On
Versions: 1 2 3 4 5 6 7 8 9 10 11 12 13 14 15 16 17 18 19
000
FTUS43 KIND 271427 AAA
TAFLAF
TAF AMD
KLAF 271427Z 2714/2812 VRB03KT P6SM SCT025 BKN040
      TEMPO 2714/2716 BKN025
     FM280700 15006KT 5SM BR OVC040
     FM281000 17008KT 4SM -SHRA BR VCTS OVC020CB
     FM281100 18009KT 4SM -SHRA BR VCTS OVC015CB=

USA.gov is the U.S. government's official web portal to all federal, state and local government web resources and services.